createdAt,value
2019-05-13T00:00:53.903Z,10.70
2019-05-13T00:03:23.925Z,10.70
2019-05-13T00:05:53.609Z,10.60
2019-05-13T00:08:24.822Z,10.60
2019-05-13T00:10:54.183Z,10.60
2019-05-13T00:13:23.734Z,10.60
2019-05-13T00:15:54.360Z,10.50
2019-05-13T00:18:23.821Z,10.50
2019-05-13T00:20:54.225Z,10.50
2019-05-13T00:23:23.401Z,10.40
2019-05-13T00:25:54.389Z,10.40
2019-05-13T00:28:23.455Z,10.40
2019-05-13T00:30:54.242Z,10.40
2019-05-13T00:33:24.343Z,10.30
2019-05-13T00:35:53.523Z,10.30
2019-05-13T00:38:24.375Z,10.20
2019-05-13T00:40:54.529Z,10.30
2019-05-13T00:43:24.465Z,10.20
2019-05-13T00:45:53.796Z,10.20
2019-05-13T00:48:23.678Z,10.20
2019-05-13T00:50:54.448Z,10.20
2019-05-13T00:53:23.737Z,10.10
2019-05-13T00:55:53.612Z,10.10
2019-05-13T00:58:24.154Z,10.10
2019-05-13T01:00:54.586Z,10.10
2019-05-13T01:03:26.366Z,10.00
2019-05-13T01:05:54.250Z,10.00
2019-05-13T01:08:23.778Z,9.90
2019-05-13T01:10:53.623Z,10.00
2019-05-13T01:13:23.793Z,9.90
2019-05-13T01:15:54.373Z,9.90
2019-05-13T01:18:23.401Z,9.90
2019-05-13T01:20:53.826Z,9.80
2019-05-13T01:23:24.082Z,9.80
2019-05-13T01:25:54.404Z,9.80
2019-05-13T01:28:23.983Z,9.80
2019-05-13T01:30:53.931Z,9.70
2019-05-13T01:33:23.516Z,9.70
2019-05-13T01:35:53.797Z,9.70
2019-05-13T01:38:24.087Z,9.70
2019-05-13T01:40:53.993Z,9.70
2019-05-13T01:43:24.563Z,9.60
2019-05-13T01:45:53.884Z,9.50
2019-05-13T01:48:24.028Z,9.50
2019-05-13T01:50:53.501Z,9.50
2019-05-13T01:53:24.154Z,9.50
2019-05-13T01:55:53.238Z,9.50
2019-05-13T01:58:23.621Z,9.50
2019-05-13T02:00:54.953Z,9.40
2019-05-13T02:03:24.574Z,9.40
2019-05-13T02:05:54.367Z,9.40
2019-05-13T02:08:24.530Z,9.40
2019-05-13T02:10:55.843Z,9.40
2019-05-13T02:13:25.245Z,9.40
2019-05-13T02:15:55.462Z,9.30
2019-05-13T02:18:24.842Z,9.30
2019-05-13T02:20:55.391Z,9.30
2019-05-13T02:23:25.464Z,9.30
2019-05-13T02:25:54.713Z,9.20
2019-05-13T02:28:24.758Z,9.10
2019-05-13T02:30:56.165Z,9.20
2019-05-13T02:33:25.247Z,9.20
2019-05-13T02:35:54.141Z,9.10
2019-05-13T02:38:29.494Z,9.10
2019-05-13T02:40:53.825Z,9.00
2019-05-13T02:43:24.245Z,9.00
2019-05-13T02:45:54.323Z,8.90
2019-05-13T02:48:24.059Z,8.90
2019-05-13T02:50:54.321Z,8.90
2019-05-13T02:53:24.084Z,8.90
2019-05-13T02:55:53.235Z,8.90
2019-05-13T02:58:24.280Z,8.80
2019-05-13T03:00:54.123Z,8.80
2019-05-13T03:03:23.405Z,8.80
2019-05-13T03:05:53.222Z,8.70
2019-05-13T03:08:35.229Z,8.70
2019-05-13T03:10:54.023Z,8.70
2019-05-13T03:13:23.579Z,8.60
2019-05-13T03:16:06.594Z,8.60
2019-05-13T03:18:35.280Z,8.60
2019-05-13T03:21:03.978Z,8.60
2019-05-13T03:23:32.973Z,8.60
2019-05-13T03:26:03.043Z,8.50
2019-05-13T03:28:33.492Z,8.50
2019-05-13T03:31:06.158Z,8.50
2019-05-13T03:33:36.761Z,8.50
2019-05-13T03:36:07.106Z,8.40
2019-05-13T03:38:57.230Z,8.40
2019-05-13T03:41:12.206Z,8.40
2019-05-13T03:43:43.215Z,8.40
2019-05-13T03:46:12.456Z,8.30
2019-05-13T03:48:42.829Z,8.30
2019-05-13T03:51:13.677Z,8.30
2019-05-13T03:53:43.415Z,8.30
2019-05-13T03:56:13.191Z,8.30
2019-05-13T03:58:43.619Z,8.30
2019-05-13T04:01:13.344Z,8.30
2019-05-13T04:03:43.861Z,8.20
2019-05-13T04:06:14.073Z,8.10
2019-05-13T04:08:44.054Z,8.20
2019-05-13T04:11:13.432Z,8.10
2019-05-13T04:13:43.179Z,8.10
2019-05-13T04:16:13.424Z,8.10
2019-05-13T04:18:42.901Z,8.10
2019-05-13T04:21:13.316Z,8.00
2019-05-13T04:23:42.822Z,8.00
2019-05-13T04:26:15.002Z,8.00
2019-05-13T04:28:43.997Z,8.00
2019-05-13T04:31:14.041Z,8.00
2019-05-13T04:33:43.065Z,8.00
2019-05-13T04:36:13.767Z,8.00
2019-05-13T04:38:44.692Z,8.00
2019-05-13T04:41:13.721Z,7.90
2019-05-13T04:43:44.011Z,7.90
2019-05-13T04:46:14.411Z,7.90
2019-05-13T04:48:44.370Z,7.90
2019-05-13T04:51:14.373Z,7.90
2019-05-13T04:53:42.886Z,7.90
2019-05-13T04:56:13.705Z,7.90
2019-05-13T04:58:43.037Z,7.90
2019-05-13T05:02:04.422Z,7.90
2019-05-13T05:05:05.859Z,7.90
2019-05-13T05:08:12.032Z,7.90
2019-05-13T05:11:24.013Z,7.90
2019-05-13T05:14:25.498Z,7.90
2019-05-13T05:17:42.784Z,7.90
2019-05-13T05:20:23.096Z,7.90
2019-05-13T05:23:42.279Z,7.90
2019-05-13T05:26:52.159Z,7.90
2019-05-13T05:29:32.113Z,8.00
2019-05-13T05:32:36.008Z,8.00
2019-05-13T05:35:46.505Z,8.00
2019-05-13T05:38:56.629Z,8.00
2019-05-13T05:41:28.557Z,8.10
2019-05-13T05:44:02.197Z,8.10
2019-05-13T05:46:32.371Z,8.10
2019-05-13T05:49:07.018Z,8.10
2019-05-13T05:51:38.247Z,8.20
2019-05-13T05:54:12.150Z,8.20
2019-05-13T05:56:41.480Z,8.20
2019-05-13T05:59:12.504Z,8.30
2019-05-13T06:01:52.546Z,8.30
2019-05-13T06:04:32.956Z,8.40
2019-05-13T06:07:11.582Z,8.40
2019-05-13T06:09:46.860Z,8.40
2019-05-13T06:12:23.861Z,8.50
2019-05-13T06:15:06.059Z,8.60
2019-05-13T06:17:47.896Z,8.60
2019-05-13T06:20:24.578Z,8.70
2019-05-13T06:23:02.937Z,8.80
2019-05-13T06:25:42.555Z,8.90
2019-05-13T06:28:23.904Z,9.00
2019-05-13T06:31:03.638Z,9.10
2019-05-13T06:33:42.207Z,9.40
2019-05-13T06:36:25.113Z,9.60
2019-05-13T06:39:06.410Z,9.80
2019-05-13T06:41:48.595Z,10.00
2019-05-13T06:44:25.343Z,10.10
2019-05-13T06:47:07.046Z,10.20
2019-05-13T06:49:42.991Z,10.40
2019-05-13T06:52:17.530Z,10.60
2019-05-13T06:54:54.166Z,10.90
2019-05-13T06:57:32.253Z,11.20
2019-05-13T07:00:08.282Z,11.60
2019-05-13T07:02:45.630Z,11.90
2019-05-13T07:05:25.017Z,12.30
2019-05-13T07:08:06.863Z,12.60
2019-05-13T07:10:44.385Z,12.80
2019-05-13T07:13:23.055Z,13.10
2019-05-13T07:16:03.530Z,13.30
2019-05-13T07:18:41.506Z,13.50
2019-05-13T07:21:21.570Z,13.80
2019-05-13T07:23:57.848Z,14.00
2019-05-13T07:26:37.347Z,14.20
2019-05-13T07:29:13.224Z,14.40
2019-05-13T07:31:52.254Z,14.50
2019-05-13T07:34:28.125Z,14.60
2019-05-13T07:37:11.217Z,14.70
2019-05-13T07:39:46.757Z,14.80
2019-05-13T07:42:25.623Z,14.90
2019-05-13T07:45:12.322Z,15.00
2019-05-13T07:47:52.096Z,15.00
2019-05-13T07:50:28.359Z,15.00
2019-05-13T07:53:05.493Z,15.00
2019-05-13T07:55:52.527Z,15.00
2019-05-13T07:58:28.651Z,15.10
2019-05-13T08:01:02.992Z,15.20
2019-05-13T08:03:44.901Z,15.30
2019-05-13T08:06:22.016Z,15.30
2019-05-13T08:09:14.731Z,15.30
2019-05-13T08:12:04.336Z,15.50
2019-05-13T08:14:43.334Z,15.60
2019-05-13T08:17:26.173Z,15.70
2019-05-13T08:20:03.566Z,15.80
2019-05-13T08:22:43.309Z,15.90
2019-05-13T08:25:18.685Z,16.00
2019-05-13T08:27:54.570Z,16.00
2019-05-13T08:30:33.547Z,16.10
2019-05-13T08:33:15.528Z,16.20
2019-05-13T08:35:53.870Z,16.30
2019-05-13T08:38:32.163Z,16.40
2019-05-13T08:41:18.831Z,16.50
2019-05-13T08:43:52.416Z,16.50
2019-05-13T08:46:32.306Z,16.60
2019-05-13T08:49:11.566Z,16.70
2019-05-13T08:51:45.875Z,16.90
2019-05-13T08:54:25.607Z,16.90
2019-05-13T08:57:05.907Z,17.00
2019-05-13T08:59:43.202Z,17.00
2019-05-13T09:02:18.492Z,17.00
2019-05-13T09:05:02.114Z,17.10
2019-05-13T09:07:34.932Z,17.10
2019-05-13T09:10:12.540Z,17.20
2019-05-13T09:12:43.473Z,17.20
2019-05-13T09:15:22.409Z,17.20
2019-05-13T09:18:08.704Z,17.20
2019-05-13T09:20:45.358Z,17.20
2019-05-13T09:23:22.281Z,17.20
2019-05-13T09:26:11.941Z,17.20
2019-05-13T09:28:46.202Z,17.20
2019-05-13T09:31:24.345Z,17.30
2019-05-13T09:33:53.791Z,17.50
2019-05-13T09:36:33.365Z,17.70
2019-05-13T09:39:09.068Z,17.80
2019-05-13T09:41:51.810Z,18.10
2019-05-13T09:44:32.690Z,18.40
2019-05-13T09:47:06.675Z,18.70
2019-05-13T09:49:47.818Z,18.90
2019-05-13T09:52:24.009Z,19.40
2019-05-13T09:54:57.735Z,19.60
2019-05-13T09:57:41.257Z,19.60
2019-05-13T10:00:23.281Z,20.00
2019-05-13T10:03:02.193Z,20.50
2019-05-13T10:05:36.409Z,20.80
2019-05-13T10:08:15.774Z,21.20
2019-05-13T10:10:55.200Z,21.60
2019-05-13T10:13:33.266Z,21.80
2019-05-13T10:16:06.228Z,22.30
2019-05-13T10:18:42.702Z,22.50
2019-05-13T10:21:22.892Z,22.90
2019-05-13T10:24:04.656Z,23.30
2019-05-13T10:26:42.862Z,23.70
2019-05-13T10:29:22.907Z,23.90
2019-05-13T10:32:03.162Z,24.00
2019-05-13T10:34:46.008Z,23.80
2019-05-13T10:37:26.746Z,23.80
2019-05-13T10:40:02.306Z,24.00
2019-05-13T10:42:39.956Z,24.20
2019-05-13T10:45:22.123Z,24.20
2019-05-13T10:47:58.085Z,24.40
2019-05-13T10:50:38.104Z,24.60
2019-05-13T10:53:13.693Z,24.60
2019-05-13T10:55:47.465Z,24.70
2019-05-13T10:58:25.397Z,24.50
2019-05-13T11:01:03.973Z,24.80
2019-05-13T11:03:46.004Z,24.80
2019-05-13T11:06:24.332Z,24.80
2019-05-13T11:09:01.562Z,24.90
2019-05-13T11:11:42.319Z,25.00
2019-05-13T11:14:23.447Z,25.00
2019-05-13T11:17:06.814Z,24.80
2019-05-13T11:19:48.029Z,24.70
2019-05-13T11:22:32.679Z,24.70
2019-05-13T11:25:12.233Z,24.60
2019-05-13T11:27:55.549Z,24.60
2019-05-13T11:30:28.700Z,25.00
2019-05-13T11:33:10.225Z,25.20
2019-05-13T11:35:48.527Z,25.20
2019-05-13T11:38:28.670Z,25.20
2019-05-13T11:41:11.868Z,25.10
2019-05-13T11:44:09.226Z,24.60
2019-05-13T11:46:29.384Z,24.30
2019-05-13T11:49:14.544Z,24.30
2019-05-13T11:51:52.139Z,24.40
2019-05-13T11:54:30.099Z,24.20
2019-05-13T11:57:12.510Z,24.20
2019-05-13T11:59:52.457Z,24.20
2019-05-13T12:02:25.584Z,23.90
2019-05-13T12:05:07.462Z,23.80
2019-05-13T12:07:46.369Z,23.70
2019-05-13T12:10:23.601Z,23.50
2019-05-13T12:13:02.649Z,23.50
2019-05-13T12:15:46.089Z,23.50
2019-05-13T12:18:14.051Z,23.50
2019-05-13T12:20:55.412Z,23.60
2019-05-13T12:23:31.137Z,23.50
2019-05-13T12:26:08.120Z,23.30
2019-05-13T12:28:37.032Z,23.30
2019-05-13T12:31:12.233Z,23.30
2019-05-13T12:33:52.205Z,23.00
2019-05-13T12:36:37.756Z,22.70
2019-05-13T12:39:14.407Z,22.60
2019-05-13T12:41:49.267Z,22.50
2019-05-13T12:44:33.479Z,22.40
2019-05-13T12:47:12.107Z,22.30
2019-05-13T12:49:48.916Z,22.50
2019-05-13T12:52:27.731Z,22.40
2019-05-13T12:55:04.764Z,22.30
2019-05-13T12:57:39.911Z,22.20
2019-05-13T13:00:13.947Z,22.40
2019-05-13T13:02:52.006Z,22.40
2019-05-13T13:05:37.325Z,22.40
2019-05-13T13:08:34.475Z,22.40
2019-05-13T13:10:59.497Z,22.30
2019-05-13T13:16:19.470Z,22.20
2019-05-13T13:18:55.409Z,22.00
2019-05-13T13:21:33.591Z,21.90
2019-05-13T13:24:12.265Z,21.80
2019-05-13T13:26:48.295Z,21.80
2019-05-13T13:29:26.433Z,21.60
2019-05-13T13:32:02.886Z,21.50
2019-05-13T13:34:38.653Z,21.60
2019-05-13T13:37:22.590Z,21.50
2019-05-13T13:40:02.643Z,21.40
2019-05-13T13:42:43.056Z,21.40
2019-05-13T13:45:23.352Z,21.50
2019-05-13T13:48:03.952Z,21.50
2019-05-13T13:50:43.333Z,21.60
2019-05-13T13:53:25.215Z,21.60
2019-05-13T13:56:02.264Z,21.60
2019-05-13T13:58:43.795Z,21.40
2019-05-13T14:01:26.924Z,21.30
2019-05-13T14:04:03.779Z,21.20
2019-05-13T14:06:50.057Z,22.30
2019-05-13T14:09:24.400Z,21.20
2019-05-13T14:12:02.256Z,21.00
2019-05-13T14:14:41.465Z,21.10
2019-05-13T14:17:16.875Z,21.00
2019-05-13T14:19:53.534Z,21.00
2019-05-13T14:22:27.491Z,20.90
2019-05-13T14:25:11.481Z,20.90
2019-05-13T14:27:43.525Z,20.90
2019-05-13T14:30:22.572Z,21.00
2019-05-13T14:33:02.167Z,21.00
2019-05-13T14:35:36.843Z,21.10
2019-05-13T14:38:17.313Z,21.10
2019-05-13T14:40:54.753Z,21.00
2019-05-13T14:43:31.775Z,20.90
2019-05-13T14:46:12.631Z,21.00
2019-05-13T14:48:52.392Z,20.90
2019-05-13T14:51:29.222Z,20.90
2019-05-13T14:54:05.424Z,20.80
2019-05-13T14:56:42.103Z,20.80
2019-05-13T14:59:18.321Z,20.70
2019-05-13T15:02:01.189Z,20.80
2019-05-13T15:04:36.005Z,20.70
2019-05-13T15:07:12.173Z,20.70
2019-05-13T15:09:45.616Z,20.70
2019-05-13T15:12:21.682Z,20.60
2019-05-13T15:14:58.020Z,20.70
2019-05-13T15:17:38.016Z,20.60
2019-05-13T15:20:21.612Z,20.50
2019-05-13T15:22:59.855Z,20.40
2019-05-13T15:25:41.773Z,20.20
2019-05-13T15:28:22.054Z,20.20
2019-05-13T15:30:55.667Z,20.10
2019-05-13T15:33:32.887Z,20.20
2019-05-13T15:36:16.925Z,20.30
2019-05-13T15:38:54.140Z,20.30
2019-05-13T15:41:33.557Z,20.20
2019-05-13T15:44:07.674Z,20.10
2019-05-13T15:46:36.500Z,20.20
2019-05-13T15:49:05.070Z,20.10
2019-05-13T15:51:42.020Z,20.10
2019-05-13T15:54:16.827Z,20.20
2019-05-13T15:56:57.660Z,20.20
2019-05-13T15:59:31.136Z,20.10
2019-05-13T16:02:11.395Z,20.10
2019-05-13T16:05:00.237Z,20.10
2019-05-13T16:07:28.129Z,20.00
2019-05-13T16:10:02.034Z,20.00
2019-05-13T16:12:38.870Z,20.00
2019-05-13T16:15:15.494Z,19.90
2019-05-13T16:17:57.162Z,19.90
2019-05-13T16:20:34.935Z,19.90
2019-05-13T16:23:12.128Z,19.80
2019-05-13T16:25:47.585Z,19.70
2019-05-13T16:28:27.155Z,19.60
2019-05-13T16:31:02.865Z,19.60
2019-05-13T16:33:37.790Z,19.50
2019-05-13T16:36:13.254Z,19.50
2019-05-13T16:38:52.049Z,19.40
2019-05-13T16:41:43.194Z,19.30
2019-05-13T16:44:22.470Z,19.30
2019-05-13T16:47:01.498Z,19.30
2019-05-13T16:49:42.115Z,19.30
2019-05-13T16:52:25.387Z,19.30
2019-05-13T16:55:02.739Z,19.20
2019-05-13T16:57:39.137Z,19.20
2019-05-13T17:00:15.925Z,19.20
2019-05-13T17:02:51.866Z,19.20
2019-05-13T17:05:24.069Z,19.10
2019-05-13T17:08:04.666Z,19.10
2019-05-13T17:10:42.655Z,19.00
2019-05-13T17:13:17.991Z,19.00
2019-05-13T17:15:52.270Z,18.90
2019-05-13T17:18:33.073Z,18.90
2019-05-13T17:21:11.392Z,18.90
2019-05-13T17:23:52.323Z,18.90
2019-05-13T17:26:32.718Z,18.90
2019-05-13T17:29:14.056Z,18.80
2019-05-13T17:31:51.533Z,18.80
2019-05-13T17:34:31.602Z,18.70
2019-05-13T17:37:07.613Z,18.70
2019-05-13T17:39:45.481Z,18.70
2019-05-13T17:42:18.251Z,18.60
2019-05-13T17:45:02.385Z,18.60
2019-05-13T17:47:37.896Z,18.60
2019-05-13T17:50:11.685Z,18.60
2019-05-13T17:52:52.697Z,18.50
2019-05-13T17:55:29.000Z,18.40
2019-05-13T17:58:07.056Z,18.40
2019-05-13T18:00:45.873Z,18.40
2019-05-13T18:03:21.072Z,18.30
2019-05-13T18:05:55.807Z,18.30
2019-05-13T18:08:32.049Z,18.30
2019-05-13T18:11:06.656Z,18.20
2019-05-13T18:13:48.239Z,18.10
2019-05-13T18:16:24.294Z,18.10
2019-05-13T18:18:58.797Z,18.00
2019-05-13T18:21:33.427Z,17.90
2019-05-13T18:24:14.859Z,17.90
2019-05-13T18:26:52.075Z,17.80
2019-05-13T18:29:31.595Z,17.80
2019-05-13T18:32:12.143Z,17.70
2019-05-13T18:34:45.759Z,17.70
2019-05-13T18:37:24.155Z,17.60
2019-05-13T18:40:02.328Z,17.60
2019-05-13T18:42:37.558Z,17.50
2019-05-13T18:45:16.781Z,17.40
2019-05-13T18:48:01.694Z,17.40
2019-05-13T18:50:41.907Z,17.30
2019-05-13T18:53:17.959Z,17.20
2019-05-13T18:55:56.169Z,17.20
2019-05-13T18:58:34.152Z,17.10
2019-05-13T19:01:11.245Z,17.10
2019-05-13T19:03:52.609Z,17.00
2019-05-13T19:06:31.624Z,16.90
2019-05-13T19:09:07.322Z,16.90
2019-05-13T19:11:36.775Z,16.80
2019-05-13T19:14:05.430Z,16.80
2019-05-13T19:16:34.112Z,16.70
2019-05-13T19:19:12.199Z,16.70
2019-05-13T19:21:33.324Z,16.60
2019-05-13T19:24:02.175Z,16.50
2019-05-13T19:26:30.927Z,16.40
2019-05-13T19:29:01.971Z,16.40
2019-05-13T19:31:29.824Z,16.30
2019-05-13T19:33:58.506Z,16.30
2019-05-13T19:36:27.080Z,16.20
2019-05-13T19:38:55.752Z,16.10
2019-05-13T19:41:24.312Z,16.00
2019-05-13T19:43:53.143Z,15.90
2019-05-13T19:46:21.819Z,15.90
2019-05-13T19:48:52.190Z,15.80
2019-05-13T19:51:21.601Z,15.80
2019-05-13T19:53:51.730Z,15.70
2019-05-13T19:56:21.433Z,15.60
2019-05-13T19:58:49.959Z,15.60
2019-05-13T20:01:18.670Z,15.50
2019-05-13T20:03:47.363Z,15.50
2019-05-13T20:06:15.926Z,15.40
2019-05-13T20:08:44.314Z,15.30
2019-05-13T20:11:12.991Z,15.30
2019-05-13T20:13:41.983Z,15.20
2019-05-13T20:16:11.725Z,15.10
2019-05-13T20:18:41.476Z,15.10
2019-05-13T20:21:13.303Z,15.00
2019-05-13T20:23:41.431Z,15.00
2019-05-13T20:26:09.909Z,14.90
2019-05-13T20:28:38.419Z,14.90
2019-05-13T20:31:07.174Z,14.80
2019-05-13T20:33:39.616Z,14.80
2019-05-13T20:36:06.209Z,14.70
2019-05-13T20:38:34.869Z,14.60
2019-05-13T20:41:03.549Z,14.60
2019-05-13T20:43:32.950Z,14.50
2019-05-13T20:46:02.224Z,14.50
2019-05-13T20:48:32.028Z,14.40
2019-05-13T20:51:02.529Z,14.40
2019-05-13T20:53:31.718Z,14.40
2019-05-13T20:56:01.690Z,14.30
2019-05-13T20:58:31.885Z,14.30
2019-05-13T21:01:02.371Z,14.20
2019-05-13T21:03:31.719Z,14.20
2019-05-13T21:06:00.248Z,14.10
2019-05-13T21:08:28.930Z,14.10
2019-05-13T21:10:57.638Z,14.10
2019-05-13T21:13:26.305Z,14.00
2019-05-13T21:15:55.903Z,13.90
2019-05-13T21:18:24.741Z,13.90
2019-05-13T21:20:53.370Z,13.80
2019-05-13T21:23:21.888Z,13.70
2019-05-13T21:25:51.105Z,13.60
2019-05-13T21:28:21.852Z,13.60
2019-05-13T21:30:51.413Z,13.50
2019-05-13T21:33:22.189Z,13.40
2019-05-13T21:35:51.227Z,13.40
2019-05-13T21:38:22.215Z,13.30
2019-05-13T21:40:52.168Z,13.30
2019-05-13T21:43:21.636Z,13.10
2019-05-13T21:45:52.109Z,13.10
2019-05-13T21:48:21.740Z,13.00
2019-05-13T21:50:51.609Z,12.90
2019-05-13T21:53:24.153Z,12.90
2019-05-13T21:55:51.989Z,12.80
2019-05-13T21:58:22.242Z,12.80
2019-05-13T22:00:52.121Z,12.70
2019-05-13T22:03:20.911Z,12.70
2019-05-13T22:05:51.523Z,12.70
2019-05-13T22:08:21.624Z,12.60
2019-05-13T22:10:52.373Z,12.50
2019-05-13T22:13:21.107Z,12.50
2019-05-13T22:15:49.534Z,12.50
2019-05-13T22:18:18.670Z,12.40
2019-05-13T22:20:50.523Z,12.30
2019-05-13T22:23:17.447Z,12.30
2019-05-13T22:25:46.047Z,12.30
2019-05-13T22:28:14.976Z,12.20
2019-05-13T22:30:44.608Z,12.20
2019-05-13T22:33:13.335Z,12.20
2019-05-13T22:35:42.008Z,12.20
2019-05-13T22:38:12.247Z,12.10
2019-05-13T22:40:42.101Z,12.10
2019-05-13T22:43:12.150Z,12.10
2019-05-13T22:45:41.877Z,12.00
2019-05-13T22:48:14.620Z,12.00
2019-05-13T22:50:41.894Z,12.00
2019-05-13T22:53:12.036Z,12.00
2019-05-13T22:55:41.770Z,11.90
2019-05-13T22:58:10.606Z,11.80
2019-05-13T23:00:39.293Z,11.80
2019-05-13T23:03:09.845Z,11.70
2019-05-13T23:05:38.502Z,11.70
2019-05-13T23:08:07.194Z,11.60
2019-05-13T23:10:35.893Z,11.60
2019-05-13T23:13:04.659Z,11.60
2019-05-13T23:15:33.259Z,11.60
2019-05-13T23:18:01.942Z,11.50
2019-05-13T23:20:31.806Z,11.50
2019-05-13T23:23:01.278Z,11.50
2019-05-13T23:25:32.042Z,11.40
2019-05-13T23:28:00.471Z,11.40
2019-05-13T23:30:31.075Z,11.40
2019-05-13T23:32:59.181Z,11.40
2019-05-13T23:35:27.841Z,11.40
2019-05-13T23:37:56.529Z,11.30
2019-05-13T23:40:25.235Z,11.30
2019-05-13T23:42:53.606Z,11.30
2019-05-13T23:45:22.166Z,11.20
2019-05-13T23:47:51.082Z,11.30
2019-05-13T23:50:21.525Z,11.20
2019-05-13T23:52:51.183Z,11.20
2019-05-13T23:55:22.472Z,11.20
2019-05-13T23:57:52.494Z,11.20
